sensor_id;sensor_type;location;lat;lon;timestamp;P1;durP1;ratioP1;P2;durP2;ratioP2
81336;SDS011;70799;48.000;10.584;2024-02-16T00:00:59;5.53;;;2.97;;
81336;SDS011;70799;48.000;10.584;2024-02-16T00:03:35;4.35;;;2.17;;
81336;SDS011;70799;48.000;10.584;2024-02-16T00:06:11;4.30;;;2.20;;
81336;SDS011;70799;48.000;10.584;2024-02-16T00:08:49;4.68;;;2.47;;
81336;SDS011;70799;48.000;10.584;2024-02-16T00:11:24;5.43;;;2.80;;
81336;SDS011;70799;48.000;10.584;2024-02-16T00:16:37;5.25;;;2.22;;
81336;SDS011;70799;48.000;10.584;2024-02-16T00:19:13;4.15;;;2.17;;
81336;SDS011;70799;48.000;10.584;2024-02-16T00:24:25;5.68;;;2.17;;
81336;SDS011;70799;48.000;10.584;2024-02-16T00:27:04;4.35;;;2.42;;
81336;SDS011;70799;48.000;10.584;2024-02-16T00:29:40;4.35;;;2.03;;
81336;SDS011;70799;48.000;10.584;2024-02-16T00:32:16;5.15;;;2.95;;
81336;SDS011;70799;48.000;10.584;2024-02-16T00:34:52;4.05;;;2.35;;
81336;SDS011;70799;48.000;10.584;2024-02-16T00:37:28;3.90;;;1.67;;
81336;SDS011;70799;48.000;10.584;2024-02-16T00:40:04;5.32;;;1.98;;
81336;SDS011;70799;48.000;10.584;2024-02-16T00:42:40;5.50;;;1.80;;
81336;SDS011;70799;48.000;10.584;2024-02-16T00:45:16;3.67;;;2.00;;
81336;SDS011;70799;48.000;10.584;2024-02-16T00:47:52;3.63;;;2.17;;
81336;SDS011;70799;48.000;10.584;2024-02-16T00:50:29;3.75;;;1.55;;
81336;SDS011;70799;48.000;10.584;2024-02-16T00:53:05;4.15;;;1.73;;
81336;SDS011;70799;48.000;10.584;2024-02-16T00:55:41;5.15;;;1.90;;
81336;SDS011;70799;48.000;10.584;2024-02-16T01:00:54;3.42;;;1.42;;
81336;SDS011;70799;48.000;10.584;2024-02-16T01:03:29;3.70;;;1.52;;
81336;SDS011;70799;48.000;10.584;2024-02-16T01:06:06;3.17;;;1.20;;
81336;SDS011;70799;48.000;10.584;2024-02-16T01:08:45;3.20;;;1.80;;
81336;SDS011;70799;48.000;10.584;2024-02-16T01:11:21;2.60;;;1.13;;
81336;SDS011;70799;48.000;10.584;2024-02-16T01:13:58;2.53;;;1.30;;
81336;SDS011;70799;48.000;10.584;2024-02-16T01:16:34;2.90;;;1.45;;
81336;SDS011;70799;48.000;10.584;2024-02-16T01:19:10;2.47;;;1.00;;
81336;SDS011;70799;48.000;10.584;2024-02-16T01:21:47;2.10;;;1.20;;
81336;SDS011;70799;48.000;10.584;2024-02-16T01:24:25;2.53;;;1.35;;
81336;SDS011;70799;48.000;10.584;2024-02-16T01:29:37;2.78;;;1.17;;
81336;SDS011;70799;48.000;10.584;2024-02-16T01:32:13;3.63;;;1.45;;
81336;SDS011;70799;48.000;10.584;2024-02-16T01:34:50;3.50;;;1.25;;
81336;SDS011;70799;48.000;10.584;2024-02-16T01:40:03;3.28;;;1.63;;
81336;SDS011;70799;48.000;10.584;2024-02-16T01:42:41;3.17;;;1.45;;
81336;SDS011;70799;48.000;10.584;2024-02-16T01:45:17;3.53;;;1.30;;
81336;SDS011;70799;48.000;10.584;2024-02-16T01:47:54;2.55;;;1.40;;
81336;SDS011;70799;48.000;10.584;2024-02-16T01:50:33;3.30;;;1.77;;
81336;SDS011;70799;48.000;10.584;2024-02-16T01:53:09;2.83;;;1.10;;
81336;SDS011;70799;48.000;10.584;2024-02-16T01:55:50;3.50;;;1.73;;
81336;SDS011;70799;48.000;10.584;2024-02-16T01:58:26;2.15;;;1.05;;
81336;SDS011;70799;48.000;10.584;2024-02-16T02:01:02;3.45;;;1.42;;
81336;SDS011;70799;48.000;10.584;2024-02-16T02:03:40;3.22;;;1.20;;
81336;SDS011;70799;48.000;10.584;2024-02-16T02:06:17;3.28;;;1.58;;
81336;SDS011;70799;48.000;10.584;2024-02-16T02:08:53;2.85;;;1.27;;
81336;SDS011;70799;48.000;10.584;2024-02-16T02:11:29;2.95;;;1.23;;
81336;SDS011;70799;48.000;10.584;2024-02-16T02:14:05;3.80;;;1.50;;
81336;SDS011;70799;48.000;10.584;2024-02-16T02:16:42;3.75;;;1.13;;
81336;SDS011;70799;48.000;10.584;2024-02-16T02:19:29;2.95;;;1.67;;
81336;SDS011;70799;48.000;10.584;2024-02-16T02:22:18;2.15;;;1.25;;
81336;SDS011;70799;48.000;10.584;2024-02-16T02:24:54;3.75;;;1.25;;
81336;SDS011;70799;48.000;10.584;2024-02-16T02:27:30;2.70;;;1.50;;
81336;SDS011;70799;48.000;10.584;2024-02-16T02:30:06;2.75;;;1.42;;
81336;SDS011;70799;48.000;10.584;2024-02-16T02:32:42;2.95;;;1.15;;
81336;SDS011;70799;48.000;10.584;2024-02-16T02:35:19;2.30;;;1.20;;
81336;SDS011;70799;48.000;10.584;2024-02-16T02:37:54;2.50;;;1.17;;
81336;SDS011;70799;48.000;10.584;2024-02-16T02:40:36;3.13;;;1.30;;
81336;SDS011;70799;48.000;10.584;2024-02-16T02:43:12;2.90;;;1.35;;
81336;SDS011;70799;48.000;10.584;2024-02-16T02:45:48;1.98;;;1.10;;
81336;SDS011;70799;48.000;10.584;2024-02-16T02:48:24;3.35;;;1.10;;
81336;SDS011;70799;48.000;10.584;2024-02-16T02:51:02;2.40;;;1.10;;
81336;SDS011;70799;48.000;10.584;2024-02-16T02:53:40;2.67;;;1.52;;
81336;SDS011;70799;48.000;10.584;2024-02-16T02:56:16;3.55;;;1.30;;
81336;SDS011;70799;48.000;10.584;2024-02-16T02:58:51;1.90;;;0.95;;
81336;SDS011;70799;48.000;10.584;2024-02-16T03:01:27;3.80;;;1.30;;
81336;SDS011;70799;48.000;10.584;2024-02-16T03:04:04;2.17;;;1.08;;
81336;SDS011;70799;48.000;10.584;2024-02-16T03:06:41;2.05;;;1.10;;
81336;SDS011;70799;48.000;10.584;2024-02-16T03:09:17;2.40;;;0.98;;
81336;SDS011;70799;48.000;10.584;2024-02-16T03:11:54;2.00;;;1.00;;
81336;SDS011;70799;48.000;10.584;2024-02-16T03:14:32;2.45;;;0.70;;
81336;SDS011;70799;48.000;10.584;2024-02-16T03:17:08;2.13;;;1.38;;
81336;SDS011;70799;48.000;10.584;2024-02-16T03:19:44;2.50;;;1.00;;
81336;SDS011;70799;48.000;10.584;2024-02-16T03:27:32;1.88;;;0.70;;
81336;SDS011;70799;48.000;10.584;2024-02-16T03:30:08;1.80;;;0.98;;
81336;SDS011;70799;48.000;10.584;2024-02-16T03:35:24;1.80;;;0.70;;
81336;SDS011;70799;48.000;10.584;2024-02-16T03:38:02;3.75;;;1.15;;
81336;SDS011;70799;48.000;10.584;2024-02-16T03:40:38;1.90;;;0.77;;
81336;SDS011;70799;48.000;10.584;2024-02-16T03:43:14;1.60;;;0.85;;
81336;SDS011;70799;48.000;10.584;2024-02-16T03:45:50;2.40;;;1.10;;
81336;SDS011;70799;48.000;10.584;2024-02-16T03:48:26;2.67;;;1.33;;
81336;SDS011;70799;48.000;10.584;2024-02-16T03:51:02;2.45;;;1.00;;
81336;SDS011;70799;48.000;10.584;2024-02-16T03:53:38;3.58;;;0.70;;
81336;SDS011;70799;48.000;10.584;2024-02-16T03:56:19;2.30;;;1.02;;
81336;SDS011;70799;48.000;10.584;2024-02-16T03:58:55;3.10;;;0.82;;
81336;SDS011;70799;48.000;10.584;2024-02-16T04:01:38;2.20;;;0.80;;
81336;SDS011;70799;48.000;10.584;2024-02-16T04:04:14;3.60;;;1.00;;
81336;SDS011;70799;48.000;10.584;2024-02-16T04:06:50;4.57;;;0.98;;
81336;SDS011;70799;48.000;10.584;2024-02-16T04:09:26;1.88;;;0.77;;
81336;SDS011;70799;48.000;10.584;2024-02-16T04:12:02;2.10;;;0.90;;
81336;SDS011;70799;48.000;10.584;2024-02-16T04:14:39;2.67;;;1.00;;
81336;SDS011;70799;48.000;10.584;2024-02-16T04:17:16;2.10;;;0.85;;
81336;SDS011;70799;48.000;10.584;2024-02-16T04:19:52;2.40;;;0.80;;
81336;SDS011;70799;48.000;10.584;2024-02-16T04:22:28;1.95;;;1.17;;
81336;SDS011;70799;48.000;10.584;2024-02-16T04:25:09;2.28;;;0.88;;
81336;SDS011;70799;48.000;10.584;2024-02-16T04:27:45;2.53;;;1.10;;
81336;SDS011;70799;48.000;10.584;2024-02-16T04:30:21;6.07;;;0.90;;
81336;SDS011;70799;48.000;10.584;2024-02-16T04:32:58;2.55;;;0.90;;
81336;SDS011;70799;48.000;10.584;2024-02-16T04:35:34;1.63;;;0.90;;
81336;SDS011;70799;48.000;10.584;2024-02-16T04:38:10;1.92;;;0.73;;
81336;SDS011;70799;48.000;10.584;2024-02-16T04:40:46;2.72;;;0.70;;
81336;SDS011;70799;48.000;10.584;2024-02-16T04:43:22;2.35;;;1.00;;
81336;SDS011;70799;48.000;10.584;2024-02-16T04:45:58;1.50;;;0.82;;
81336;SDS011;70799;48.000;10.584;2024-02-16T04:48:34;2.47;;;1.02;;
81336;SDS011;70799;48.000;10.584;2024-02-16T04:51:10;1.77;;;0.90;;
81336;SDS011;70799;48.000;10.584;2024-02-16T04:53:46;1.83;;;0.70;;
81336;SDS011;70799;48.000;10.584;2024-02-16T04:56:22;1.77;;;1.00;;
81336;SDS011;70799;48.000;10.584;2024-02-16T04:58:58;2.90;;;0.70;;
81336;SDS011;70799;48.000;10.584;2024-02-16T05:01:34;1.60;;;0.70;;
81336;SDS011;70799;48.000;10.584;2024-02-16T05:04:10;2.85;;;1.48;;
81336;SDS011;70799;48.000;10.584;2024-02-16T05:06:49;2.60;;;1.05;;
81336;SDS011;70799;48.000;10.584;2024-02-16T05:09:31;2.00;;;0.88;;
81336;SDS011;70799;48.000;10.584;2024-02-16T05:12:08;2.15;;;0.70;;
81336;SDS011;70799;48.000;10.584;2024-02-16T05:17:22;2.25;;;0.90;;
81336;SDS011;70799;48.000;10.584;2024-02-16T05:19:58;3.30;;;0.70;;
81336;SDS011;70799;48.000;10.584;2024-02-16T05:22:34;2.47;;;0.93;;
81336;SDS011;70799;48.000;10.584;2024-02-16T05:25:10;2.75;;;1.20;;
81336;SDS011;70799;48.000;10.584;2024-02-16T05:27:50;2.88;;;0.75;;
81336;SDS011;70799;48.000;10.584;2024-02-16T05:30:25;2.22;;;0.90;;
81336;SDS011;70799;48.000;10.584;2024-02-16T05:33:02;2.50;;;0.90;;
81336;SDS011;70799;48.000;10.584;2024-02-16T05:35:39;2.10;;;0.90;;
81336;SDS011;70799;48.000;10.584;2024-02-16T05:38:16;2.72;;;1.00;;
81336;SDS011;70799;48.000;10.584;2024-02-16T05:41:04;2.70;;;1.10;;
81336;SDS011;70799;48.000;10.584;2024-02-16T05:43:42;2.17;;;0.88;;
81336;SDS011;70799;48.000;10.584;2024-02-16T05:46:18;1.77;;;0.80;;
81336;SDS011;70799;48.000;10.584;2024-02-16T05:48:55;2.42;;;1.15;;
81336;SDS011;70799;48.000;10.584;2024-02-16T05:51:35;2.08;;;0.68;;
81336;SDS011;70799;48.000;10.584;2024-02-16T05:54:11;3.15;;;0.85;;
81336;SDS011;70799;48.000;10.584;2024-02-16T05:56:47;2.30;;;0.68;;
81336;SDS011;70799;48.000;10.584;2024-02-16T05:59:23;1.85;;;0.75;;
81336;SDS011;70799;48.000;10.584;2024-02-16T06:01:59;2.22;;;0.80;;
81336;SDS011;70799;48.000;10.584;2024-02-16T06:04:35;3.15;;;0.70;;
81336;SDS011;70799;48.000;10.584;2024-02-16T06:07:12;2.08;;;0.70;;
81336;SDS011;70799;48.000;10.584;2024-02-16T06:12:26;1.83;;;0.65;;
81336;SDS011;70799;48.000;10.584;2024-02-16T06:15:02;2.75;;;0.90;;
81336;SDS011;70799;48.000;10.584;2024-02-16T06:17:38;2.15;;;1.10;;
81336;SDS011;70799;48.000;10.584;2024-02-16T06:22:52;2.75;;;1.00;;
81336;SDS011;70799;48.000;10.584;2024-02-16T06:25:27;1.40;;;0.90;;
81336;SDS011;70799;48.000;10.584;2024-02-16T06:28:04;4.60;;;1.70;;
81336;SDS011;70799;48.000;10.584;2024-02-16T06:30:40;4.75;;;2.38;;
81336;SDS011;70799;48.000;10.584;2024-02-16T06:33:16;7.35;;;2.90;;
81336;SDS011;70799;48.000;10.584;2024-02-16T06:35:53;8.60;;;3.17;;
81336;SDS011;70799;48.000;10.584;2024-02-16T06:38:30;5.18;;;2.63;;
81336;SDS011;70799;48.000;10.584;2024-02-16T06:41:06;5.85;;;2.83;;
81336;SDS011;70799;48.000;10.584;2024-02-16T06:43:42;6.90;;;2.78;;
81336;SDS011;70799;48.000;10.584;2024-02-16T06:46:21;3.78;;;1.75;;
81336;SDS011;70799;48.000;10.584;2024-02-16T06:48:59;4.35;;;1.95;;
81336;SDS011;70799;48.000;10.584;2024-02-16T06:51:36;3.05;;;1.17;;
81336;SDS011;70799;48.000;10.584;2024-02-16T06:54:13;3.47;;;1.45;;
81336;SDS011;70799;48.000;10.584;2024-02-16T06:59:25;4.13;;;1.48;;
81336;SDS011;70799;48.000;10.584;2024-02-16T07:04:39;3.92;;;1.25;;
81336;SDS011;70799;48.000;10.584;2024-02-16T07:07:17;4.25;;;1.50;;
81336;SDS011;70799;48.000;10.584;2024-02-16T07:12:29;7.32;;;2.40;;
81336;SDS011;70799;48.000;10.584;2024-02-16T07:15:06;4.32;;;1.95;;
81336;SDS011;70799;48.000;10.584;2024-02-16T07:17:42;4.82;;;2.35;;
81336;SDS011;70799;48.000;10.584;2024-02-16T07:20:18;5.38;;;2.28;;
81336;SDS011;70799;48.000;10.584;2024-02-16T07:22:54;4.15;;;2.15;;
81336;SDS011;70799;48.000;10.584;2024-02-16T07:25:30;5.07;;;2.00;;
81336;SDS011;70799;48.000;10.584;2024-02-16T07:28:06;4.55;;;2.08;;
81336;SDS011;70799;48.000;10.584;2024-02-16T07:30:42;6.65;;;2.65;;
81336;SDS011;70799;48.000;10.584;2024-02-16T07:33:18;5.57;;;2.50;;
81336;SDS011;70799;48.000;10.584;2024-02-16T07:35:57;4.10;;;2.10;;
81336;SDS011;70799;48.000;10.584;2024-02-16T07:38:33;5.53;;;2.70;;
81336;SDS011;70799;48.000;10.584;2024-02-16T07:43:45;5.30;;;2.00;;
81336;SDS011;70799;48.000;10.584;2024-02-16T07:46:21;4.85;;;2.28;;
81336;SDS011;70799;48.000;10.584;2024-02-16T07:51:33;3.75;;;1.67;;
81336;SDS011;70799;48.000;10.584;2024-02-16T07:54:09;4.85;;;1.40;;
81336;SDS011;70799;48.000;10.584;2024-02-16T07:56:46;2.22;;;0.90;;
81336;SDS011;70799;48.000;10.584;2024-02-16T07:59:24;4.32;;;1.92;;
81336;SDS011;70799;48.000;10.584;2024-02-16T08:02:00;4.32;;;1.80;;
81336;SDS011;70799;48.000;10.584;2024-02-16T08:04:35;4.32;;;2.00;;
81336;SDS011;70799;48.000;10.584;2024-02-16T08:07:13;3.50;;;1.73;;
81336;SDS011;70799;48.000;10.584;2024-02-16T08:09:49;4.05;;;1.48;;
81336;SDS011;70799;48.000;10.584;2024-02-16T08:12:25;5.80;;;1.85;;
81336;SDS011;70799;48.000;10.584;2024-02-16T08:15:05;3.67;;;2.08;;
81336;SDS011;70799;48.000;10.584;2024-02-16T08:17:42;3.60;;;1.70;;
81336;SDS011;70799;48.000;10.584;2024-02-16T08:20:19;5.85;;;2.50;;
81336;SDS011;70799;48.000;10.584;2024-02-16T08:22:55;5.18;;;1.95;;
81336;SDS011;70799;48.000;10.584;2024-02-16T08:25:32;7.32;;;2.08;;
81336;SDS011;70799;48.000;10.584;2024-02-16T08:28:08;3.95;;;2.15;;
81336;SDS011;70799;48.000;10.584;2024-02-16T08:30:44;5.50;;;2.00;;
81336;SDS011;70799;48.000;10.584;2024-02-16T08:33:20;4.63;;;1.90;;
81336;SDS011;70799;48.000;10.584;2024-02-16T08:35:57;5.18;;;2.17;;
81336;SDS011;70799;48.000;10.584;2024-02-16T08:38:33;3.13;;;1.77;;
81336;SDS011;70799;48.000;10.584;2024-02-16T08:41:10;3.67;;;1.70;;
81336;SDS011;70799;48.000;10.584;2024-02-16T08:43:47;2.60;;;1.17;;
81336;SDS011;70799;48.000;10.584;2024-02-16T08:46:24;3.63;;;1.83;;
81336;SDS011;70799;48.000;10.584;2024-02-16T08:49:02;3.75;;;1.55;;
81336;SDS011;70799;48.000;10.584;2024-02-16T08:51:38;2.22;;;0.80;;
81336;SDS011;70799;48.000;10.584;2024-02-16T08:54:15;2.03;;;0.70;;
81336;SDS011;70799;48.000;10.584;2024-02-16T08:56:53;1.52;;;0.70;;
81336;SDS011;70799;48.000;10.584;2024-02-16T08:59:30;2.95;;;0.95;;
81336;SDS011;70799;48.000;10.584;2024-02-16T09:02:06;2.08;;;0.75;;
81336;SDS011;70799;48.000;10.584;2024-02-16T09:04:43;1.52;;;0.50;;
81336;SDS011;70799;48.000;10.584;2024-02-16T09:07:21;7.38;;;0.80;;
81336;SDS011;70799;48.000;10.584;2024-02-16T09:09:58;3.28;;;0.70;;
81336;SDS011;70799;48.000;10.584;2024-02-16T09:12:36;1.70;;;0.80;;
81336;SDS011;70799;48.000;10.584;2024-02-16T09:15:12;7.57;;;0.60;;
81336;SDS011;70799;48.000;10.584;2024-02-16T09:17:50;3.97;;;0.70;;
81336;SDS011;70799;48.000;10.584;2024-02-16T09:20:26;2.30;;;0.90;;
81336;SDS011;70799;48.000;10.584;2024-02-16T09:23:03;4.03;;;0.90;;
81336;SDS011;70799;48.000;10.584;2024-02-16T09:25:40;5.15;;;1.50;;
81336;SDS011;70799;48.000;10.584;2024-02-16T09:28:20;2.92;;;0.77;;
81336;SDS011;70799;48.000;10.584;2024-02-16T09:31:02;3.00;;;0.68;;
81336;SDS011;70799;48.000;10.584;2024-02-16T09:33:43;5.63;;;1.05;;
81336;SDS011;70799;48.000;10.584;2024-02-16T09:36:19;1.90;;;0.55;;
81336;SDS011;70799;48.000;10.584;2024-02-16T09:38:55;2.03;;;1.05;;
81336;SDS011;70799;48.000;10.584;2024-02-16T09:41:34;6.13;;;0.77;;
81336;SDS011;70799;48.000;10.584;2024-02-16T09:44:11;1.67;;;0.70;;
81336;SDS011;70799;48.000;10.584;2024-02-16T09:46:47;2.13;;;0.55;;
81336;SDS011;70799;48.000;10.584;2024-02-16T09:49:24;6.68;;;1.20;;
81336;SDS011;70799;48.000;10.584;2024-02-16T09:52:11;3.08;;;0.73;;
81336;SDS011;70799;48.000;10.584;2024-02-16T09:54:48;2.53;;;1.00;;
81336;SDS011;70799;48.000;10.584;2024-02-16T09:57:24;2.03;;;0.93;;
81336;SDS011;70799;48.000;10.584;2024-02-16T10:00:01;2.35;;;0.65;;
81336;SDS011;70799;48.000;10.584;2024-02-16T10:02:45;2.63;;;0.90;;
81336;SDS011;70799;48.000;10.584;2024-02-16T10:05:22;4.50;;;0.90;;
81336;SDS011;70799;48.000;10.584;2024-02-16T10:07:59;1.98;;;0.70;;
81336;SDS011;70799;48.000;10.584;2024-02-16T10:10:35;2.80;;;1.15;;
81336;SDS011;70799;48.000;10.584;2024-02-16T10:13:11;2.63;;;1.00;;
81336;SDS011;70799;48.000;10.584;2024-02-16T10:15:47;1.90;;;0.70;;
81336;SDS011;70799;48.000;10.584;2024-02-16T10:18:27;6.70;;;1.00;;
81336;SDS011;70799;48.000;10.584;2024-02-16T10:21:03;1.83;;;0.90;;
81336;SDS011;70799;48.000;10.584;2024-02-16T10:23:39;3.13;;;1.00;;
81336;SDS011;70799;48.000;10.584;2024-02-16T10:26:15;2.88;;;1.27;;
81336;SDS011;70799;48.000;10.584;2024-02-16T10:28:52;4.57;;;1.23;;
81336;SDS011;70799;48.000;10.584;2024-02-16T10:31:32;2.38;;;0.75;;
81336;SDS011;70799;48.000;10.584;2024-02-16T10:34:08;6.15;;;1.00;;
81336;SDS011;70799;48.000;10.584;2024-02-16T10:36:44;3.78;;;1.10;;
81336;SDS011;70799;48.000;10.584;2024-02-16T10:39:20;2.58;;;0.98;;
81336;SDS011;70799;48.000;10.584;2024-02-16T10:41:56;2.05;;;1.00;;
81336;SDS011;70799;48.000;10.584;2024-02-16T10:44:35;5.00;;;0.85;;
81336;SDS011;70799;48.000;10.584;2024-02-16T10:47:14;2.97;;;0.82;;
81336;SDS011;70799;48.000;10.584;2024-02-16T10:49:50;3.30;;;1.20;;
81336;SDS011;70799;48.000;10.584;2024-02-16T10:52:26;2.28;;;0.80;;
81336;SDS011;70799;48.000;10.584;2024-02-16T10:55:04;3.53;;;1.13;;
81336;SDS011;70799;48.000;10.584;2024-02-16T10:57:41;2.22;;;0.60;;
81336;SDS011;70799;48.000;10.584;2024-02-16T11:00:17;1.75;;;0.60;;
81336;SDS011;70799;48.000;10.584;2024-02-16T11:02:56;2.85;;;0.90;;
81336;SDS011;70799;48.000;10.584;2024-02-16T11:05:36;3.33;;;0.90;;
81336;SDS011;70799;48.000;10.584;2024-02-16T11:08:19;3.97;;;1.05;;
81336;SDS011;70799;48.000;10.584;2024-02-16T11:13:35;2.13;;;0.75;;
81336;SDS011;70799;48.000;10.584;2024-02-16T11:16:14;2.25;;;1.30;;
81336;SDS011;70799;48.000;10.584;2024-02-16T11:18:54;2.15;;;0.88;;
81336;SDS011;70799;48.000;10.584;2024-02-16T11:21:30;3.42;;;0.95;;
81336;SDS011;70799;48.000;10.584;2024-02-16T11:24:07;2.25;;;1.05;;
81336;SDS011;70799;48.000;10.584;2024-02-16T11:26:44;2.20;;;1.20;;
81336;SDS011;70799;48.000;10.584;2024-02-16T11:29:21;1.33;;;0.70;;
81336;SDS011;70799;48.000;10.584;2024-02-16T11:31:57;2.38;;;0.70;;
81336;SDS011;70799;48.000;10.584;2024-02-16T11:34:34;5.63;;;1.00;;
81336;SDS011;70799;48.000;10.584;2024-02-16T11:37:10;3.90;;;0.75;;
81336;SDS011;70799;48.000;10.584;2024-02-16T11:39:54;2.70;;;0.88;;
81336;SDS011;70799;48.000;10.584;2024-02-16T11:42:33;3.10;;;0.90;;
81336;SDS011;70799;48.000;10.584;2024-02-16T11:45:10;2.47;;;0.98;;
81336;SDS011;70799;48.000;10.584;2024-02-16T11:47:48;2.38;;;1.08;;
81336;SDS011;70799;48.000;10.584;2024-02-16T11:50:24;8.02;;;0.82;;
81336;SDS011;70799;48.000;10.584;2024-02-16T11:53:02;2.70;;;0.70;;
81336;SDS011;70799;48.000;10.584;2024-02-16T11:55:38;2.72;;;0.90;;
81336;SDS011;70799;48.000;10.584;2024-02-16T11:58:17;2.08;;;1.02;;
81336;SDS011;70799;48.000;10.584;2024-02-16T12:00:54;3.00;;;1.00;;
81336;SDS011;70799;48.000;10.584;2024-02-16T12:03:35;5.05;;;1.05;;
81336;SDS011;70799;48.000;10.584;2024-02-16T12:06:19;3.08;;;1.35;;
81336;SDS011;70799;48.000;10.584;2024-02-16T12:08:59;4.05;;;1.42;;
81336;SDS011;70799;48.000;10.584;2024-02-16T12:11:35;4.68;;;1.50;;
81336;SDS011;70799;48.000;10.584;2024-02-16T12:14:12;2.28;;;1.00;;
81336;SDS011;70799;48.000;10.584;2024-02-16T12:16:48;2.38;;;0.93;;
81336;SDS011;70799;48.000;10.584;2024-02-16T12:19:25;2.78;;;0.80;;
81336;SDS011;70799;48.000;10.584;2024-02-16T12:22:01;3.35;;;0.95;;
81336;SDS011;70799;48.000;10.584;2024-02-16T12:24:38;2.88;;;0.90;;
81336;SDS011;70799;48.000;10.584;2024-02-16T12:27:14;3.20;;;1.08;;
81336;SDS011;70799;48.000;10.584;2024-02-16T12:29:50;2.95;;;1.10;;
81336;SDS011;70799;48.000;10.584;2024-02-16T12:32:26;1.85;;;1.08;;
81336;SDS011;70799;48.000;10.584;2024-02-16T12:35:02;5.22;;;1.08;;
81336;SDS011;70799;48.000;10.584;2024-02-16T12:37:39;3.78;;;1.20;;
81336;SDS011;70799;48.000;10.584;2024-02-16T12:40:15;2.85;;;1.30;;
81336;SDS011;70799;48.000;10.584;2024-02-16T12:42:51;4.47;;;1.00;;
81336;SDS011;70799;48.000;10.584;2024-02-16T12:45:27;2.45;;;0.90;;
81336;SDS011;70799;48.000;10.584;2024-02-16T12:48:04;3.42;;;0.73;;
81336;SDS011;70799;48.000;10.584;2024-02-16T12:50:47;3.08;;;1.35;;
81336;SDS011;70799;48.000;10.584;2024-02-16T12:53:27;3.60;;;1.08;;
81336;SDS011;70799;48.000;10.584;2024-02-16T12:56:13;2.67;;;0.95;;
81336;SDS011;70799;48.000;10.584;2024-02-16T12:58:52;2.33;;;0.90;;
81336;SDS011;70799;48.000;10.584;2024-02-16T13:01:34;3.28;;;1.30;;
81336;SDS011;70799;48.000;10.584;2024-02-16T13:04:10;3.17;;;1.00;;
81336;SDS011;70799;48.000;10.584;2024-02-16T13:06:54;2.55;;;0.90;;
81336;SDS011;70799;48.000;10.584;2024-02-16T13:09:30;5.50;;;0.90;;
81336;SDS011;70799;48.000;10.584;2024-02-16T13:12:06;3.78;;;1.25;;
81336;SDS011;70799;48.000;10.584;2024-02-16T13:14:42;2.50;;;1.10;;
81336;SDS011;70799;48.000;10.584;2024-02-16T13:17:18;4.13;;;1.33;;
81336;SDS011;70799;48.000;10.584;2024-02-16T13:19:54;2.92;;;1.10;;
81336;SDS011;70799;48.000;10.584;2024-02-16T13:22:39;3.15;;;1.25;;
81336;SDS011;70799;48.000;10.584;2024-02-16T13:25:15;2.67;;;1.15;;
81336;SDS011;70799;48.000;10.584;2024-02-16T13:27:54;2.88;;;0.93;;
81336;SDS011;70799;48.000;10.584;2024-02-16T13:30:34;2.85;;;1.00;;
81336;SDS011;70799;48.000;10.584;2024-02-16T13:33:13;4.93;;;1.55;;
81336;SDS011;70799;48.000;10.584;2024-02-16T13:35:49;4.40;;;1.20;;
81336;SDS011;70799;48.000;10.584;2024-02-16T13:38:27;4.38;;;1.20;;
81336;SDS011;70799;48.000;10.584;2024-02-16T13:41:03;2.55;;;1.10;;
81336;SDS011;70799;48.000;10.584;2024-02-16T13:43:39;2.05;;;0.90;;
81336;SDS011;70799;48.000;10.584;2024-02-16T13:46:15;4.20;;;1.40;;
81336;SDS011;70799;48.000;10.584;2024-02-16T13:48:52;4.65;;;1.33;;
81336;SDS011;70799;48.000;10.584;2024-02-16T13:51:29;2.35;;;1.23;;
81336;SDS011;70799;48.000;10.584;2024-02-16T13:54:05;4.13;;;1.20;;
81336;SDS011;70799;48.000;10.584;2024-02-16T13:56:43;3.72;;;1.73;;
81336;SDS011;70799;48.000;10.584;2024-02-16T13:59:20;3.90;;;1.13;;
81336;SDS011;70799;48.000;10.584;2024-02-16T14:01:55;4.53;;;1.73;;
81336;SDS011;70799;48.000;10.584;2024-02-16T14:04:33;4.82;;;1.75;;
81336;SDS011;70799;48.000;10.584;2024-02-16T14:07:10;2.88;;;1.30;;
81336;SDS011;70799;48.000;10.584;2024-02-16T14:09:46;3.75;;;1.73;;
81336;SDS011;70799;48.000;10.584;2024-02-16T14:12:22;4.28;;;1.75;;
81336;SDS011;70799;48.000;10.584;2024-02-16T14:14:58;4.47;;;1.60;;
81336;SDS011;70799;48.000;10.584;2024-02-16T14:17:34;4.93;;;1.80;;
81336;SDS011;70799;48.000;10.584;2024-02-16T14:20:10;3.83;;;1.70;;
81336;SDS011;70799;48.000;10.584;2024-02-16T14:22:46;3.28;;;1.63;;
81336;SDS011;70799;48.000;10.584;2024-02-16T14:25:23;3.47;;;1.95;;
81336;SDS011;70799;48.000;10.584;2024-02-16T14:28:01;3.67;;;1.77;;
81336;SDS011;70799;48.000;10.584;2024-02-16T14:30:37;3.80;;;1.90;;
81336;SDS011;70799;48.000;10.584;2024-02-16T14:33:14;4.68;;;2.25;;
81336;SDS011;70799;48.000;10.584;2024-02-16T14:36:04;3.35;;;1.83;;
81336;SDS011;70799;48.000;10.584;2024-02-16T14:38:45;4.68;;;2.42;;
81336;SDS011;70799;48.000;10.584;2024-02-16T14:41:26;6.63;;;2.38;;
81336;SDS011;70799;48.000;10.584;2024-02-16T14:44:03;5.97;;;2.60;;
81336;SDS011;70799;48.000;10.584;2024-02-16T14:46:39;5.18;;;2.58;;
81336;SDS011;70799;48.000;10.584;2024-02-16T14:49:15;4.18;;;2.17;;
81336;SDS011;70799;48.000;10.584;2024-02-16T14:51:55;5.38;;;2.72;;
81336;SDS011;70799;48.000;10.584;2024-02-16T14:54:33;7.55;;;3.30;;
81336;SDS011;70799;48.000;10.584;2024-02-16T14:57:09;5.97;;;3.17;;
81336;SDS011;70799;48.000;10.584;2024-02-16T14:59:45;5.53;;;2.47;;
81336;SDS011;70799;48.000;10.584;2024-02-16T15:02:21;5.60;;;2.20;;
81336;SDS011;70799;48.000;10.584;2024-02-16T15:04:57;6.18;;;2.80;;
81336;SDS011;70799;48.000;10.584;2024-02-16T15:07:34;6.40;;;2.92;;
81336;SDS011;70799;48.000;10.584;2024-02-16T15:10:10;4.53;;;3.05;;
81336;SDS011;70799;48.000;10.584;2024-02-16T15:12:46;6.45;;;3.40;;
81336;SDS011;70799;48.000;10.584;2024-02-16T15:15:22;4.95;;;2.58;;
81336;SDS011;70799;48.000;10.584;2024-02-16T15:17:58;5.72;;;3.15;;
81336;SDS011;70799;48.000;10.584;2024-02-16T15:20:37;6.72;;;3.63;;
81336;SDS011;70799;48.000;10.584;2024-02-16T15:23:13;5.40;;;2.38;;
81336;SDS011;70799;48.000;10.584;2024-02-16T15:25:49;6.25;;;3.28;;
81336;SDS011;70799;48.000;10.584;2024-02-16T15:28:25;6.63;;;3.20;;
81336;SDS011;70799;48.000;10.584;2024-02-16T15:31:02;5.38;;;2.58;;
81336;SDS011;70799;48.000;10.584;2024-02-16T15:33:38;6.05;;;2.85;;
81336;SDS011;70799;48.000;10.584;2024-02-16T15:36:14;11.52;;;4.40;;
81336;SDS011;70799;48.000;10.584;2024-02-16T15:38:50;10.90;;;5.28;;
81336;SDS011;70799;48.000;10.584;2024-02-16T15:41:26;8.15;;;4.15;;
81336;SDS011;70799;48.000;10.584;2024-02-16T15:44:03;8.60;;;3.80;;
81336;SDS011;70799;48.000;10.584;2024-02-16T15:46:39;8.48;;;3.58;;
81336;SDS011;70799;48.000;10.584;2024-02-16T15:49:16;9.10;;;3.80;;
81336;SDS011;70799;48.000;10.584;2024-02-16T15:51:52;8.60;;;4.00;;
81336;SDS011;70799;48.000;10.584;2024-02-16T15:54:28;6.05;;;3.45;;
81336;SDS011;70799;48.000;10.584;2024-02-16T15:57:04;7.40;;;3.22;;
81336;SDS011;70799;48.000;10.584;2024-02-16T15:59:40;10.05;;;3.42;;
81336;SDS011;70799;48.000;10.584;2024-02-16T16:02:16;6.28;;;3.33;;
81336;SDS011;70799;48.000;10.584;2024-02-16T16:04:52;5.53;;;2.90;;
81336;SDS011;70799;48.000;10.584;2024-02-16T16:07:28;6.65;;;3.22;;
81336;SDS011;70799;48.000;10.584;2024-02-16T16:10:04;5.65;;;3.33;;
81336;SDS011;70799;48.000;10.584;2024-02-16T16:12:41;9.88;;;3.65;;
81336;SDS011;70799;48.000;10.584;2024-02-16T16:15:17;7.75;;;3.17;;